sensor_id;sensor_type;location;lat;lon;timestamp;pressure;altitude;pressure_sealevel;temperature;humidity
58686;BME280;44465;53.206;-6.106;2022-09-09T00:01:07;100484.59;;;23.07;56.42
58686;BME280;44465;53.206;-6.106;2022-09-09T00:03:43;100481.59;;;23.12;56.52
58686;BME280;44465;53.206;-6.106;2022-09-09T00:06:25;100483.41;;;23.11;56.57
58686;BME280;44465;53.206;-6.106;2022-09-09T00:09:15;100482.44;;;23.12;56.40
58686;BME280;44465;53.206;-6.106;2022-09-09T00:14:59;100477.41;;;23.07;56.24
58686;BME280;44465;53.206;-6.106;2022-09-09T00:17:38;100481.81;;;23.08;56.18
58686;BME280;44465;53.206;-6.106;2022-09-09T00:20:14;100464.41;;;23.01;56.43
58686;BME280;44465;53.206;-6.106;2022-09-09T00:22:48;100482.56;;;23.11;56.06
58686;BME280;44465;53.206;-6.106;2022-09-09T00:25:28;100483.53;;;23.09;56.59
58686;BME280;44465;53.206;-6.106;2022-09-09T00:27:55;100482.66;;;23.09;56.84
58686;BME280;44465;53.206;-6.106;2022-09-09T00:30:31;100480.09;;;23.07;56.70
58686;BME280;44465;53.206;-6.106;2022-09-09T00:33:01;100473.88;;;23.07;56.95
58686;BME280;44465;53.206;-6.106;2022-09-09T00:35:36;100478.47;;;23.05;56.76
58686;BME280;44465;53.206;-6.106;2022-09-09T00:38:13;100482.00;;;23.05;56.70
58686;BME280;44465;53.206;-6.106;2022-09-09T00:40:48;100475.78;;;23.05;56.70
58686;BME280;44465;53.206;-6.106;2022-09-09T00:43:32;100476.63;;;23.05;56.58
58686;BME280;44465;53.206;-6.106;2022-09-09T00:49:04;100473.88;;;23.07;56.51
58686;BME280;44465;53.206;-6.106;2022-09-09T00:57:29;100465.06;;;23.05;56.50
58686;BME280;44465;53.206;-6.106;2022-09-09T01:00:14;100463.97;;;23.07;56.83
58686;BME280;44465;53.206;-6.106;2022-09-09T01:13:00;100464.59;;;22.98;56.53
58686;BME280;44465;53.206;-6.106;2022-09-09T01:15:31;100466.34;;;22.99;56.59
58686;BME280;44465;53.206;-6.106;2022-09-09T01:18:20;100470.75;;;23.00;56.66
58686;BME280;44465;53.206;-6.106;2022-09-09T01:23:51;100469.66;;;23.03;56.37
58686;BME280;44465;53.206;-6.106;2022-09-09T01:26:35;100466.22;;;23.01;56.25
58686;BME280;44465;53.206;-6.106;2022-09-09T01:29:12;100466.13;;;23.02;56.34
58686;BME280;44465;53.206;-6.106;2022-09-09T01:31:42;100466.00;;;23.04;56.43
58686;BME280;44465;53.206;-6.106;2022-09-09T01:34:17;100464.28;;;23.03;56.63
58686;BME280;44465;53.206;-6.106;2022-09-09T01:37:07;100463.53;;;23.01;56.26
58686;BME280;44465;53.206;-6.106;2022-09-09T01:39:37;100468.91;;;23.01;56.36
58686;BME280;44465;53.206;-6.106;2022-09-09T01:42:09;100465.38;;;23.00;56.44
58686;BME280;44465;53.206;-6.106;2022-09-09T01:44:36;100460.09;;;22.99;56.48
58686;BME280;44465;53.206;-6.106;2022-09-09T01:47:04;100461.81;;;23.00;56.46
58686;BME280;44465;53.206;-6.106;2022-09-09T01:49:31;100464.59;;;22.98;56.52
58686;BME280;44465;53.206;-6.106;2022-09-09T01:51:59;100463.53;;;23.01;56.65
58686;BME280;44465;53.206;-6.106;2022-09-09T01:54:31;100451.81;;;23.02;56.51
58686;BME280;44465;53.206;-6.106;2022-09-09T01:57:27;100451.28;;;22.97;56.41
58686;BME280;44465;53.206;-6.106;2022-09-09T02:00:07;100451.06;;;23.00;56.30
58686;BME280;44465;53.206;-6.106;2022-09-09T02:05:40;100453.66;;;23.01;56.40
58686;BME280;44465;53.206;-6.106;2022-09-09T02:08:33;100431.53;;;22.98;56.29
58686;BME280;44465;53.206;-6.106;2022-09-09T02:11:08;100445.69;;;23.00;56.45
58686;BME280;44465;53.206;-6.106;2022-09-09T02:13:44;100447.41;;;23.01;56.28
58686;BME280;44465;53.206;-6.106;2022-09-09T02:18:53;100438.59;;;22.99;56.48
58686;BME280;44465;53.206;-6.106;2022-09-09T02:21:30;100447.66;;;22.98;56.58
58686;BME280;44465;53.206;-6.106;2022-09-09T02:23:58;100438.72;;;22.97;56.62
58686;BME280;44465;53.206;-6.106;2022-09-09T02:26:28;100442.28;;;22.98;56.60
58686;BME280;44465;53.206;-6.106;2022-09-09T02:29:02;100434.94;;;23.00;56.29
58686;BME280;44465;53.206;-6.106;2022-09-09T02:31:30;100427.78;;;23.00;56.31
58686;BME280;44465;53.206;-6.106;2022-09-09T02:34:03;100431.31;;;23.01;56.18
58686;BME280;44465;53.206;-6.106;2022-09-09T02:36:32;100443.78;;;23.02;56.39
58686;BME280;44465;53.206;-6.106;2022-09-09T02:38:59;100425.09;;;23.00;56.43
58686;BME280;44465;53.206;-6.106;2022-09-09T02:41:39;100431.31;;;23.01;56.18
58686;BME280;44465;53.206;-6.106;2022-09-09T02:44:10;100438.41;;;23.02;56.30
58686;BME280;44465;53.206;-6.106;2022-09-09T02:52:42;100430.03;;;22.93;56.36
58686;BME280;44465;53.206;-6.106;2022-09-09T02:55:29;100426.38;;;22.95;56.37
58686;BME280;44465;53.206;-6.106;2022-09-09T02:57:59;100430.78;;;22.96;56.55
58686;BME280;44465;53.206;-6.106;2022-09-09T03:00:28;100436.16;;;22.96;56.59
58686;BME280;44465;53.206;-6.106;2022-09-09T03:02:58;100414.75;;;22.94;56.61
58686;BME280;44465;53.206;-6.106;2022-09-09T03:05:24;100426.25;;;22.96;56.40
58686;BME280;44465;53.206;-6.106;2022-09-09T03:07:50;100428.84;;;22.98;56.47
58686;BME280;44465;53.206;-6.106;2022-09-09T03:10:18;100431.53;;;22.98;56.26
58686;BME280;44465;53.206;-6.106;2022-09-09T03:12:43;100429.69;;;22.98;56.45
58686;BME280;44465;53.206;-6.106;2022-09-09T03:15:09;100417.13;;;22.99;56.29
58686;BME280;44465;53.206;-6.106;2022-09-09T03:17:37;100419.91;;;22.97;56.22
58686;BME280;44465;53.206;-6.106;2022-09-09T03:20:05;100415.44;;;22.98;56.12
58686;BME280;44465;53.206;-6.106;2022-09-09T03:22:32;100415.44;;;22.98;56.29
58686;BME280;44465;53.206;-6.106;2022-09-09T03:24:59;100422.72;;;22.96;56.26
58686;BME280;44465;53.206;-6.106;2022-09-09T03:27:25;100417.34;;;22.96;56.59
58686;BME280;44465;53.206;-6.106;2022-09-09T03:29:51;100422.72;;;22.96;56.42
58686;BME280;44465;53.206;-6.106;2022-09-09T03:32:20;100429.06;;;22.95;56.48
58686;BME280;44465;53.206;-6.106;2022-09-09T03:34:48;100430.78;;;22.96;56.61
58686;BME280;44465;53.206;-6.106;2022-09-09T03:37:16;100424.44;;;22.97;56.72
58686;BME280;44465;53.206;-6.106;2022-09-09T03:39:43;100428.09;;;22.96;56.36
58686;BME280;44465;53.206;-6.106;2022-09-09T03:42:09;100427.22;;;22.95;56.06
58686;BME280;44465;53.206;-6.106;2022-09-09T03:44:34;100418.31;;;22.95;56.46
58686;BME280;44465;53.206;-6.106;2022-09-09T03:47:00;100418.19;;;22.96;56.29
58686;BME280;44465;53.206;-6.106;2022-09-09T03:49:26;100416.47;;;22.95;56.09
58686;BME280;44465;53.206;-6.106;2022-09-09T03:51:55;100428.09;;;22.96;56.16
58686;BME280;44465;53.206;-6.106;2022-09-09T03:54:23;100415.63;;;22.95;56.16
58686;BME280;44465;53.206;-6.106;2022-09-09T03:56:49;100415.50;;;22.96;56.12
58686;BME280;44465;53.206;-6.106;2022-09-09T03:59:14;100419.28;;;22.93;56.18
58686;BME280;44465;53.206;-6.106;2022-09-09T04:01:41;100417.44;;;22.94;56.29
58686;BME280;44465;53.206;-6.106;2022-09-09T04:04:06;100417.56;;;22.92;56.56
58686;BME280;44465;53.206;-6.106;2022-09-09T04:06:34;100417.25;;;22.84;56.65
58686;BME280;44465;53.206;-6.106;2022-09-09T04:09:00;100418.00;;;22.86;56.56
58686;BME280;44465;53.206;-6.106;2022-09-09T04:11:27;100410.66;;;22.88;56.57
58686;BME280;44465;53.206;-6.106;2022-09-09T04:13:55;100421.09;;;22.93;56.26
58686;BME280;44465;53.206;-6.106;2022-09-09T04:16:21;100430.88;;;22.94;56.28
58686;BME280;44465;53.206;-6.106;2022-09-09T04:18:47;100426.38;;;22.95;56.16
58686;BME280;44465;53.206;-6.106;2022-09-09T04:21:15;100421.84;;;22.95;56.24
58686;BME280;44465;53.206;-6.106;2022-09-09T04:23:41;100425.41;;;22.96;56.32
58686;BME280;44465;53.206;-6.106;2022-09-09T04:26:08;100440.56;;;22.97;56.12
58686;BME280;44465;53.206;-6.106;2022-09-09T04:28:36;100451.28;;;22.97;55.89
58686;BME280;44465;53.206;-6.106;2022-09-09T04:31:07;100437.13;;;22.95;56.10
58686;BME280;44465;53.206;-6.106;2022-09-09T04:33:35;100446.25;;;22.92;56.37
58686;BME280;44465;53.206;-6.106;2022-09-09T04:36:00;100444.59;;;22.89;56.30
58686;BME280;44465;53.206;-6.106;2022-09-09T04:38:26;100445.38;;;22.91;56.41
58686;BME280;44465;53.206;-6.106;2022-09-09T04:40:53;100435.59;;;22.90;56.25
58686;BME280;44465;53.206;-6.106;2022-09-09T04:43:21;100437.31;;;22.91;56.39
58686;BME280;44465;53.206;-6.106;2022-09-09T04:45:48;100437.09;;;22.82;56.45
58686;BME280;44465;53.206;-6.106;2022-09-09T04:48:14;100448.25;;;22.88;56.35
58686;BME280;44465;53.206;-6.106;2022-09-09T04:50:40;100440.31;;;22.87;56.07
58686;BME280;44465;53.206;-6.106;2022-09-09T04:53:10;100453.53;;;22.90;56.20
58686;BME280;44465;53.206;-6.106;2022-09-09T04:55:37;100458.91;;;22.90;56.24
58686;BME280;44465;53.206;-6.106;2022-09-09T04:58:08;100446.34;;;22.90;56.04
58686;BME280;44465;53.206;-6.106;2022-09-09T05:00:34;100455.34;;;22.89;56.14
58686;BME280;44465;53.206;-6.106;2022-09-09T05:03:07;100451.69;;;22.90;56.23
58686;BME280;44465;53.206;-6.106;2022-09-09T05:05:35;100445.25;;;22.93;56.04
58686;BME280;44465;53.206;-6.106;2022-09-09T05:08:06;100446.34;;;22.90;56.11
58686;BME280;44465;53.206;-6.106;2022-09-09T05:10:32;100448.25;;;22.88;56.21
58686;BME280;44465;53.206;-6.106;2022-09-09T05:12:59;100448.06;;;22.91;56.16
58686;BME280;44465;53.206;-6.106;2022-09-09T05:15:27;100447.53;;;22.86;56.29
58686;BME280;44465;53.206;-6.106;2022-09-09T05:17:56;100450.31;;;22.85;56.40
58686;BME280;44465;53.206;-6.106;2022-09-09T05:20:22;100452.03;;;22.86;56.43
58686;BME280;44465;53.206;-6.106;2022-09-09T05:22:47;100458.03;;;22.89;56.21
58686;BME280;44465;53.206;-6.106;2022-09-09T05:25:14;100449.25;;;22.87;56.26
58686;BME280;44465;53.206;-6.106;2022-09-09T05:27:40;100456.44;;;22.87;56.03
58686;BME280;44465;53.206;-6.106;2022-09-09T05:30:06;100460.72;;;22.89;56.14
58686;BME280;44465;53.206;-6.106;2022-09-09T05:32:32;100449.13;;;22.89;56.01
58686;BME280;44465;53.206;-6.106;2022-09-09T05:34:59;100452.66;;;22.89;56.04
58686;BME280;44465;53.206;-6.106;2022-09-09T05:37:24;100451.81;;;22.89;56.03
58686;BME280;44465;53.206;-6.106;2022-09-09T05:39:50;100451.69;;;22.90;56.05
58686;BME280;44465;53.206;-6.106;2022-09-09T05:42:16;100465.25;;;22.89;56.13
58686;BME280;44465;53.206;-6.106;2022-09-09T05:44:43;100460.72;;;22.89;56.20
58686;BME280;44465;53.206;-6.106;2022-09-09T05:47:10;100463.53;;;22.88;56.24
58686;BME280;44465;53.206;-6.106;2022-09-09T05:49:35;100461.16;;;22.83;55.92
58686;BME280;44465;53.206;-6.106;2022-09-09T05:52:01;100466.31;;;22.86;56.22
58686;BME280;44465;53.206;-6.106;2022-09-09T05:54:29;100467.28;;;22.85;56.24
58686;BME280;44465;53.206;-6.106;2022-09-09T05:56:55;100478.66;;;22.89;56.21
58686;BME280;44465;53.206;-6.106;2022-09-09T05:59:21;100471.69;;;22.86;56.23
58686;BME280;44465;53.206;-6.106;2022-09-09T06:01:50;100483.28;;;22.87;56.17
58686;BME280;44465;53.206;-6.106;2022-09-09T06:04:23;100493.25;;;22.85;55.82
58686;BME280;44465;53.206;-6.106;2022-09-09T06:06:49;100485.84;;;22.88;56.19
58686;BME280;44465;53.206;-6.106;2022-09-09T06:09:17;100495.50;;;22.78;56.14
58686;BME280;44465;53.206;-6.106;2022-09-09T06:11:43;100495.94;;;22.85;56.30
58686;BME280;44465;53.206;-6.106;2022-09-09T06:14:09;100497.00;;;22.82;56.17
58686;BME280;44465;53.206;-6.106;2022-09-09T06:16:36;100503.34;;;22.81;56.00
58686;BME280;44465;53.206;-6.106;2022-09-09T06:19:13;100498.41;;;22.75;56.23
58686;BME280;44465;53.206;-6.106;2022-09-09T06:21:40;100511.41;;;22.81;56.39
58686;BME280;44465;53.206;-6.106;2022-09-09T06:24:07;100510.44;;;22.82;56.31
58686;BME280;44465;53.206;-6.106;2022-09-09T06:26:36;100512.28;;;22.82;56.11
58686;BME280;44465;53.206;-6.106;2022-09-09T06:29:03;100519.34;;;22.83;56.18
58686;BME280;44465;53.206;-6.106;2022-09-09T06:31:31;100524.72;;;22.83;56.18
58686;BME280;44465;53.206;-6.106;2022-09-09T06:34:05;100519.25;;;22.84;56.24
58686;BME280;44465;53.206;-6.106;2022-09-09T06:36:32;100521.94;;;22.84;56.00
58686;BME280;44465;53.206;-6.106;2022-09-09T06:38:58;100526.22;;;22.74;56.28
58686;BME280;44465;53.206;-6.106;2022-09-09T06:41:26;100520.84;;;22.74;56.08
58686;BME280;44465;53.206;-6.106;2022-09-09T06:43:53;100532.69;;;22.84;56.04
58686;BME280;44465;53.206;-6.106;2022-09-09T06:46:29;100541.50;;;22.86;56.23
58686;BME280;44465;53.206;-6.106;2022-09-09T06:48:57;100550.50;;;22.85;56.14
58686;BME280;44465;53.206;-6.106;2022-09-09T06:51:25;100551.22;;;22.74;56.14
58686;BME280;44465;53.206;-6.106;2022-09-09T06:53:53;100547.25;;;22.80;56.27
58686;BME280;44465;53.206;-6.106;2022-09-09T06:58:49;100559.72;;;22.81;56.21
58686;BME280;44465;53.206;-6.106;2022-09-09T07:01:26;100563.38;;;22.80;56.37
58686;BME280;44465;53.206;-6.106;2022-09-09T07:03:56;100568.66;;;22.82;56.39
58686;BME280;44465;53.206;-6.106;2022-09-09T07:06:27;100572.00;;;22.85;56.11
58686;BME280;44465;53.206;-6.106;2022-09-09T07:08:55;100578.97;;;22.88;56.25
58686;BME280;44465;53.206;-6.106;2022-09-09T07:11:25;100580.81;;;22.87;56.15
58686;BME280;44465;53.206;-6.106;2022-09-09T07:13:57;100587.78;;;22.90;56.13
58686;BME280;44465;53.206;-6.106;2022-09-09T07:16:24;100589.59;;;22.89;56.17
58686;BME280;44465;53.206;-6.106;2022-09-09T07:18:51;100593.16;;;22.90;56.15
58686;BME280;44465;53.206;-6.106;2022-09-09T07:21:17;100598.59;;;22.88;56.38
58686;BME280;44465;53.206;-6.106;2022-09-09T07:23:44;100598.72;;;22.87;56.13
58686;BME280;44465;53.206;-6.106;2022-09-09T07:26:19;100603.25;;;22.86;56.03
58686;BME280;44465;53.206;-6.106;2022-09-09T07:28:45;100604.22;;;22.85;56.40
58686;BME280;44465;53.206;-6.106;2022-09-09T07:31:20;100601.53;;;22.85;56.20
58686;BME280;44465;53.206;-6.106;2022-09-09T07:33:47;100614.84;;;22.87;56.43
58686;BME280;44465;53.206;-6.106;2022-09-09T07:36:16;100607.75;;;22.86;56.26
58686;BME280;44465;53.206;-6.106;2022-09-09T07:38:48;100611.31;;;22.86;56.21
58686;BME280;44465;53.206;-6.106;2022-09-09T07:41:20;100613.88;;;22.88;56.09
58686;BME280;44465;53.206;-6.106;2022-09-09T07:43:48;100617.41;;;22.88;56.22
58686;BME280;44465;53.206;-6.106;2022-09-09T07:46:15;100618.41;;;22.87;56.20
58686;BME280;44465;53.206;-6.106;2022-09-09T07:48:50;100617.63;;;22.85;56.16
58686;BME280;44465;53.206;-6.106;2022-09-09T07:51:21;100624.63;;;22.88;56.25
58686;BME280;44465;53.206;-6.106;2022-09-09T07:53:53;100632.56;;;22.89;56.03
58686;BME280;44465;53.206;-6.106;2022-09-09T07:56:19;100627.19;;;22.89;56.01
58686;BME280;44465;53.206;-6.106;2022-09-09T07:58:48;100642.44;;;22.89;56.18
58686;BME280;44465;53.206;-6.106;2022-09-09T08:01:20;100648.78;;;22.88;55.91
58686;BME280;44465;53.206;-6.106;2022-09-09T08:03:51;100634.69;;;22.84;56.02
58686;BME280;44465;53.206;-6.106;2022-09-09T08:06:17;100650.81;;;22.84;56.24
58686;BME280;44465;53.206;-6.106;2022-09-09T08:08:43;100651.66;;;22.85;56.05
58686;BME280;44465;53.206;-6.106;2022-09-09T08:11:12;100662.41;;;22.85;56.22
58686;BME280;44465;53.206;-6.106;2022-09-09T08:13:39;100659.63;;;22.86;56.29
58686;BME280;44465;53.206;-6.106;2022-09-09T08:16:14;100662.19;;;22.88;56.00
58686;BME280;44465;53.206;-6.106;2022-09-09T08:18:40;100674.66;;;22.89;56.18
58686;BME280;44465;53.206;-6.106;2022-09-09T08:23:32;100679.94;;;22.90;56.08
58686;BME280;44465;53.206;-6.106;2022-09-09T08:26:09;100681.75;;;22.90;55.99
58686;BME280;44465;53.206;-6.106;2022-09-09T08:28:36;100689.72;;;22.91;56.26
58686;BME280;44465;53.206;-6.106;2022-09-09T08:33:32;100691.44;;;22.92;55.85
58686;BME280;44465;53.206;-6.106;2022-09-09T08:35:59;100698.53;;;22.93;56.10
58686;BME280;44465;53.206;-6.106;2022-09-09T08:38:24;100702.28;;;22.91;56.27
58686;BME280;44465;53.206;-6.106;2022-09-09T08:40:53;100706.00;;;22.88;56.00
58686;BME280;44465;53.206;-6.106;2022-09-09T08:43:25;100708.63;;;22.90;56.10
58686;BME280;44465;53.206;-6.106;2022-09-09T08:51:20;100717.44;;;22.92;56.05
58686;BME280;44465;53.206;-6.106;2022-09-09T08:53:49;100716.75;;;22.88;56.00
58686;BME280;44465;53.206;-6.106;2022-09-09T08:56:18;100718.28;;;22.92;56.05
58686;BME280;44465;53.206;-6.106;2022-09-09T08:58:54;100719.25;;;22.91;56.19
58686;BME280;44465;53.206;-6.106;2022-09-09T09:01:54;100718.00;;;22.83;56.25
58686;BME280;44465;53.206;-6.106;2022-09-09T09:04:59;100729.22;;;22.89;56.12
58686;BME280;44465;53.206;-6.106;2022-09-09T09:12:50;100738.63;;;22.97;56.28
58686;BME280;44465;53.206;-6.106;2022-09-09T09:15:21;100747.81;;;22.92;56.17
58686;BME280;44465;53.206;-6.106;2022-09-09T09:17:50;100744.47;;;22.89;56.05
58686;BME280;44465;53.206;-6.106;2022-09-09T09:20:19;100742.56;;;22.91;56.11
58686;BME280;44465;53.206;-6.106;2022-09-09T09:22:59;100753.19;;;22.92;56.08
58686;BME280;44465;53.206;-6.106;2022-09-09T09:25:31;100755.47;;;22.99;56.11
58686;BME280;44465;53.206;-6.106;2022-09-09T09:30:57;100757.13;;;23.01;55.90
58686;BME280;44465;53.206;-6.106;2022-09-09T09:33:34;100770.44;;;23.03;55.82
58686;BME280;44465;53.206;-6.106;2022-09-09T09:36:02;100773.13;;;23.03;55.91
58686;BME280;44465;53.206;-6.106;2022-09-09T09:38:29;100781.19;;;23.03;56.20
58686;BME280;44465;53.206;-6.106;2022-09-09T09:40:58;100792.69;;;23.05;56.01
58686;BME280;44465;53.206;-6.106;2022-09-09T09:43:31;100794.63;;;23.03;56.04
58686;BME280;44465;53.206;-6.106;2022-09-09T09:45:59;100792.13;;;23.00;56.03
58686;BME280;44465;53.206;-6.106;2022-09-09T09:48:27;100809.88;;;23.02;56.08
58686;BME280;44465;53.206;-6.106;2022-09-09T09:51:01;100809.00;;;23.02;56.03
58686;BME280;44465;53.206;-6.106;2022-09-09T09:53:34;100814.38;;;23.02;55.98
58686;BME280;44465;53.206;-6.106;2022-09-09T09:56:12;100815.25;;;23.02;55.91
58686;BME280;44465;53.206;-6.106;2022-09-09T10:01:25;100823.00;;;23.07;55.91
58686;BME280;44465;53.206;-6.106;2022-09-09T10:03:55;100817.25;;;23.13;55.91
58686;BME280;44465;53.206;-6.106;2022-09-09T10:06:33;100821.06;;;23.09;55.81
58686;BME280;44465;53.206;-6.106;2022-09-09T10:09:01;100821.06;;;23.09;56.01
58686;BME280;44465;53.206;-6.106;2022-09-09T10:11:33;100828.75;;;23.01;56.13
58686;BME280;44465;53.206;-6.106;2022-09-09T10:14:20;100828.16;;;23.10;55.84
58686;BME280;44465;53.206;-6.106;2022-09-09T10:17:03;100822.78;;;23.10;55.85
58686;BME280;44465;53.206;-6.106;2022-09-09T10:19:34;100828.16;;;23.10;55.85
58686;BME280;44465;53.206;-6.106;2022-09-09T10:22:33;100833.75;;;23.07;55.91
58686;BME280;44465;53.206;-6.106;2022-09-09T10:30:23;100840.84;;;23.08;55.80
58686;BME280;44465;53.206;-6.106;2022-09-09T10:32:55;100841.59;;;23.10;55.93
58686;BME280;44465;53.206;-6.106;2022-09-09T10:36:19;100843.13;;;23.14;55.92
58686;BME280;44465;53.206;-6.106;2022-09-09T10:38:39;100855.69;;;23.14;55.85
58686;BME280;44465;53.206;-6.106;2022-09-09T10:47:20;100860.88;;;23.17;55.77
58686;BME280;44465;53.206;-6.106;2022-09-09T10:53:14;100865.97;;;23.07;56.18
58686;BME280;44465;53.206;-6.106;2022-09-09T10:55:45;100870.97;;;23.13;55.89
58686;BME280;44465;53.206;-6.106;2022-09-09T10:58:25;100872.88;;;23.11;56.12
58686;BME280;44465;53.206;-6.106;2022-09-09T11:00:58;100871.13;;;23.10;56.00
58686;BME280;44465;53.206;-6.106;2022-09-09T11:03:31;100882.84;;;23.09;55.88
58686;BME280;44465;53.206;-6.106;2022-09-09T11:06:05;100888.13;;;23.11;55.89
58686;BME280;44465;53.206;-6.106;2022-09-09T11:08:34;100886.22;;;23.13;55.88
58686;BME280;44465;53.206;-6.106;2022-09-09T11:16:51;100892.16;;;23.03;55.72
58686;BME280;44465;53.206;-6.106;2022-09-09T11:19:48;100902.25;;;23.14;55.61
58686;BME280;44465;53.206;-6.106;2022-09-09T11:22:36;100903.84;;;23.17;55.67
58686;BME280;44465;53.206;-6.106;2022-09-09T11:25:32;100901.47;;;23.12;55.94
58686;BME280;44465;53.206;-6.106;2022-09-09T11:41:50;100919.13;;;23.02;56.17
58686;BME280;44465;53.206;-6.106;2022-09-09T11:44:27;100915.84;;;23.11;55.84
58686;BME280;44465;53.206;-6.106;2022-09-09T11:46:53;100915.84;;;23.11;56.02
58686;BME280;44465;53.206;-6.106;2022-09-09T11:49:50;100917.59;;;23.12;55.82
58686;BME280;44465;53.206;-6.106;2022-09-09T11:52:22;100912.97;;;23.14;55.94
58686;BME280;44465;53.206;-6.106;2022-09-09T11:54:51;100919.97;;;23.17;56.06
58686;BME280;44465;53.206;-6.106;2022-09-09T11:57:24;100917.41;;;23.15;55.79
58686;BME280;44465;53.206;-6.106;2022-09-09T11:59:51;100922.66;;;23.17;56.02
58686;BME280;44465;53.206;-6.106;2022-09-09T12:02:25;100922.78;;;23.15;56.03
58686;BME280;44465;53.206;-6.106;2022-09-09T12:05:06;100915.84;;;23.11;55.75
58686;BME280;44465;53.206;-6.106;2022-09-09T12:12:46;100918.34;;;23.14;55.87
58686;BME280;44465;53.206;-6.106;2022-09-09T12:17:51;100932.44;;;23.18;55.88
58686;BME280;44465;53.206;-6.106;2022-09-09T12:28:17;100931.13;;;23.25;55.76
58686;BME280;44465;53.206;-6.106;2022-09-09T12:31:10;100929.00;;;23.16;55.80
58686;BME280;44465;53.206;-6.106;2022-09-09T12:33:44;100937.56;;;23.22;56.18
58686;BME280;44465;53.206;-6.106;2022-09-09T12:36:21;100941.41;;;23.18;55.96
58686;BME280;44465;53.206;-6.106;2022-09-09T12:38:47;100950.34;;;23.19;55.79
58686;BME280;44465;53.206;-6.106;2022-09-09T12:43:45;100955.72;;;23.19;55.73
58686;BME280;44465;53.206;-6.106;2022-09-09T12:46:21;100960.19;;;23.18;55.61
58686;BME280;44465;53.206;-6.106;2022-09-09T12:48:48;100966.09;;;23.09;56.10
58686;BME280;44465;53.206;-6.106;2022-09-09T12:51:27;100967.31;;;23.19;56.00
58686;BME280;44465;53.206;-6.106;2022-09-09T12:53:54;100970.75;;;23.21;55.94
58686;BME280;44465;53.206;-6.106;2022-09-09T12:56:26;100965.66;;;23.17;55.66
58686;BME280;44465;53.206;-6.106;2022-09-09T12:58:53;100974.41;;;23.20;55.65
58686;BME280;44465;53.206;-6.106;2022-09-09T13:01:29;100976.63;;;23.28;55.85
58686;BME280;44465;53.206;-6.106;2022-09-09T13:03:55;100982.88;;;23.29;55.71
58686;BME280;44465;53.206;-6.106;2022-09-09T13:06:29;100980.19;;;23.29;55.65
58686;BME280;44465;53.206;-6.106;2022-09-09T13:08:57;100983.25;;;23.22;55.74
58686;BME280;44465;53.206;-6.106;2022-09-09T13:13:57;100982.38;;;23.22;55.68
58686;BME280;44465;53.206;-6.106;2022-09-09T13:16:26;100987.00;;;23.20;55.60
58686;BME280;44465;53.206;-6.106;2022-09-09T13:19:01;100986.88;;;23.21;55.64
58686;BME280;44465;53.206;-6.106;2022-09-09T13:21:35;100986.81;;;23.23;55.51
58686;BME280;44465;53.206;-6.106;2022-09-09T13:24:01;100991.19;;;23.24;55.61
58686;BME280;44465;53.206;-6.106;2022-09-09T13:26:29;100999.06;;;23.27;55.90
58686;BME280;44465;53.206;-6.106;2022-09-09T13:29:07;101000.69;;;23.30;55.89
58686;BME280;44465;53.206;-6.106;2022-09-09T13:31:36;100998.78;;;23.32;55.76
58686;BME280;44465;53.206;-6.106;2022-09-09T13:34:33;101005.03;;;23.32;55.77
58686;BME280;44465;53.206;-6.106;2022-09-09T13:37:37;101008.69;;;23.31;55.83
58686;BME280;44465;53.206;-6.106;2022-09-09T13:40:03;101008.59;;;23.33;55.71
58686;BME280;44465;53.206;-6.106;2022-09-09T13:42:33;101014.06;;;23.31;55.79
58686;BME280;44465;53.206;-6.106;2022-09-09T13:45:02;101006.06;;;23.30;55.86
58686;BME280;44465;53.206;-6.106;2022-09-09T13:47:35;101013.19;;;23.31;55.67
58686;BME280;44465;53.206;-6.106;2022-09-09T13:50:21;101013.19;;;23.31;55.76
58686;BME280;44465;53.206;-6.106;2022-09-09T13:52:48;101014.84;;;23.33;55.86
58686;BME280;44465;53.206;-6.106;2022-09-09T13:55:15;101007.06;;;23.29;56.03
58686;BME280;44465;53.206;-6.106;2022-09-09T13:57:50;101019.03;;;23.37;55.85
58686;BME280;44465;53.206;-6.106;2022-09-09T14:00:16;101004.94;;;23.34;55.99
58686;BME280;44465;53.206;-6.106;2022-09-09T14:02:41;101019.72;;;23.41;55.88
58686;BME280;44465;53.206;-6.106;2022-09-09T14:05:09;101018.69;;;23.44;55.82
58686;BME280;44465;53.206;-6.106;2022-09-09T14:07:37;101024.72;;;23.47;55.99
58686;BME280;44465;53.206;-6.106;2022-09-09T14:10:05;101039.69;;;23.51;55.60
58686;BME280;44465;53.206;-6.106;2022-09-09T14:12:30;101035.25;;;23.50;55.59
58686;BME280;44465;53.206;-6.106;2022-09-09T14:14:56;101036.31;;;23.48;55.51
58686;BME280;44465;53.206;-6.106;2022-09-09T14:17:21;101031.84;;;23.48;55.85
58686;BME280;44465;53.206;-6.106;2022-09-09T14:19:47;101032.88;;;23.46;55.64
58686;BME280;44465;53.206;-6.106;2022-09-09T14:22:13;101037.38;;;23.45;55.85
58686;BME280;44465;53.206;-6.106;2022-09-09T14:24:40;101045.56;;;23.44;55.68
58686;BME280;44465;53.206;-6.106;2022-09-09T14:27:06;101043.16;;;23.39;55.69
58686;BME280;44465;53.206;-6.106;2022-09-09T14:29:31;101039.69;;;23.37;55.61
58686;BME280;44465;53.206;-6.106;2022-09-09T14:31:58;101053.69;;;23.42;55.64
58686;BME280;44465;53.206;-6.106;2022-09-09T14:34:25;101051.56;;;23.33;56.02
58686;BME280;44465;53.206;-6.106;2022-09-09T14:36:51;101052.91;;;23.40;55.77
58686;BME280;44465;53.206;-6.106;2022-09-09T14:39:16;101050.06;;;23.43;55.66
58686;BME280;44465;53.206;-6.106;2022-09-09T14:41:42;101049.28;;;23.41;55.63
58686;BME280;44465;53.206;-6.106;2022-09-09T14:44:07;101057.16;;;23.44;55.75
58686;BME280;44465;53.206;-6.106;2022-09-09T14:46:33;101052.63;;;23.45;55.68
58686;BME280;44465;53.206;-6.106;2022-09-09T14:48:59;101055.31;;;23.45;55.60
58686;BME280;44465;53.206;-6.106;2022-09-09T14:51:25;101046.41;;;23.44;55.55
58686;BME280;44465;53.206;-6.106;2022-09-09T14:53:58;101056.38;;;23.42;55.51
58686;BME280;44465;53.206;-6.106;2022-09-09T14:56:27;101054.66;;;23.41;55.59